メインページ
METAR-TAF:

METAR-TAF

空港 :

ヴェラナ国際空港

マレ, モルディブ

緯度: 04-12N, 経度: 073-32E, 海抜: 2m

現時点の気象観測

当レポートは3時間51分前の20:00(UTC)に作成
西/北西の風 10kt
気温 28°C
湿度 89%
気圧 1009 hPa
視程10km以上
高度1700ftの雲は散在している, 塔状積雲.
高度12000ftの千切れ雲あり

METAR: VRMM 162000Z 29010KT 9999 SCT017TCU BKN120 28/26 Q1009 NOSIG

時間: 04:51 (23:51 UTC)

予報

当レポートは51分前の23:00(UTC)に作成
予報は17日の 00時(UTC)から 18日の 06時(UTC)まで有効
西の風 13kt
視程10km以上
高度1700ftの雲は散在している, 塔状積雲.
17日の 00時(UTC)から 17日の 06時(UTC)まで一時的に
西の風 18kt、最大38ktの突風を伴う
視程: 2000m
高度1000ftの雲はほとんどない
高度1600ftの雲は散在している
高度1700ftの雲はほとんどない, 積乱雲.
高度10000ftの千切れ雲あり
にわか雨

TAF: VRMM 162300Z 1700/1806 27013KT 9999 SCT017TCU TEMPO 1700/1706 27018G38KT 2000 SHRA FEW010 SCT016 FEW017CB BKN100

4,000以上の空港の気象観測と天気予報(METAR報とTAF報)

利用可能な観測所は地図上に黄色い丸と赤い丸で示す。

丸の上にカーソルを重ねると観測所名を参照できる。

次にクリックすると気象観測と天気予報を参照できる。

マップの切り替え:黒色「×」印の緑ボタンをクリックして拡大、「-」印の緑ボタンをクリックして縮小、緑色の三角印をクリックして隣りの地図に切り替え


METAR-TAF: